Orbital elements of COSMOS 567
| Launched | 7 June 1973 |
| Flight ended | – |
| Launch site | Plesetsk Missile and Space Complex, Russia |
| Owner | Commonwealth of Independent States (former USSR) |
| NORAD ID | 6678 |
| Date fetched |
Epoch osculation |
Inc. [°] |
Ecc. | RA asc node [hr] |
Arg Peri. [°] |
Mean anom [°] |
Mean motion [rev/day] |
Abs. mag |
| Date fetched |
Epoch osculation |
Inc. [°] |
Ecc. | RA asc node [hr] |
Arg Peri. [°] |
Mean anom [°] |
Mean motion [rev/day] |
Abs. mag |
| 2026 May 05 17:57 | 2026 May 05 13:37:36 | 74.0176 | 0.00448 | 11.6953 | 43.2370 | 110.1773 | 12.54107 | – |
| 2026 May 04 17:57 | 2026 Apr 30 14:56:23 | 74.0183 | 0.00447 | 12.1370 | 50.8239 | 110.1773 | 12.54107 | – |
| 2026 May 03 17:57 | 2026 Apr 30 14:56:23 | 74.0183 | 0.00447 | 12.1370 | 50.8239 | 110.1773 | 12.54107 | – |
| 2026 May 02 17:57 | 2026 Apr 30 14:56:23 | 74.0183 | 0.00447 | 12.1370 | 50.8239 | 110.1773 | 12.54107 | – |
| 2026 May 01 17:56 | 2026 Apr 30 14:56:23 | 74.0183 | 0.00447 | 12.1370 | 50.8239 | 110.1773 | 12.54107 | – |
| 2026 Apr 30 17:56 | 2026 Apr 30 14:56:23 | 74.0183 | 0.00447 | 12.1370 | 50.8239 | 110.1773 | 12.54107 | – |
| 2026 Apr 29 17:57 | 2026 Apr 24 13:11:41 | 74.0192 | 0.00447 | 12.6795 | 60.1576 | 110.1773 | 12.54107 | – |
| 2026 Apr 28 17:56 | 2026 Apr 24 13:11:41 | 74.0192 | 0.00447 | 12.6795 | 60.1576 | 110.1773 | 12.54107 | – |
| 2026 Apr 27 17:58 | 2026 Apr 24 13:11:41 | 74.0192 | 0.00447 | 12.6795 | 60.1576 | 110.1773 | 12.54107 | – |
| 2026 Apr 26 17:58 | 2026 Apr 24 13:11:41 | 74.0192 | 0.00447 | 12.6795 | 60.1576 | 110.1773 | 12.54107 | – |
| 2026 Apr 25 17:58 | 2026 Apr 24 13:11:41 | 74.0192 | 0.00447 | 12.6795 | 60.1576 | 110.1773 | 12.54107 | – |
| 2026 Apr 24 17:59 | 2026 Apr 24 13:11:41 | 74.0192 | 0.00447 | 12.6795 | 60.1576 | 110.1773 | 12.54107 | – |
| 2026 Apr 23 17:57 | 2026 Apr 19 12:05:11 | 74.0195 | 0.00447 | 13.1302 | 67.9135 | 110.1773 | 12.54107 | – |
| 2026 Apr 22 17:57 | 2026 Apr 19 12:05:11 | 74.0195 | 0.00447 | 13.1302 | 67.9135 | 110.1773 | 12.54107 | – |
| 2026 Apr 21 17:57 | 2026 Apr 19 12:05:11 | 74.0195 | 0.00447 | 13.1302 | 67.9135 | 110.1773 | 12.54107 | – |
| 2026 Apr 20 17:57 | 2026 Apr 19 12:05:11 | 74.0195 | 0.00447 | 13.1302 | 67.9135 | 110.1773 | 12.54107 | – |
| 2026 Apr 19 17:58 | 2026 Apr 19 12:05:11 | 74.0195 | 0.00447 | 13.1302 | 67.9135 | 110.1773 | 12.54107 | – |
| 2026 Apr 18 17:56 | 2026 Apr 13 06:51:34 | 74.0195 | 0.00447 | 13.6855 | 77.4755 | 110.1773 | 12.54107 | – |
| 2026 Apr 16 17:57 | 2026 Apr 13 06:51:34 | 74.0195 | 0.00447 | 13.6855 | 77.4755 | 110.1773 | 12.54107 | – |
| 2026 Apr 14 17:57 | 2026 Apr 13 06:51:34 | 74.0195 | 0.00447 | 13.6855 | 77.4755 | 110.1773 | 12.54107 | – |
| 2026 Apr 13 17:57 | 2026 Apr 13 06:51:34 | 74.0195 | 0.00447 | 13.6855 | 77.4755 | 110.1773 | 12.54107 | – |
| 2026 Apr 12 17:57 | 2026 Apr 08 13:49:17 | 74.0194 | 0.00447 | 14.1062 | 84.7214 | 110.1773 | 12.54107 | – |
| 2026 Apr 11 17:57 | 2026 Apr 08 13:49:17 | 74.0194 | 0.00447 | 14.1062 | 84.7214 | 110.1773 | 12.54107 | – |
| 2026 Apr 10 17:58 | 2026 Apr 08 13:49:17 | 74.0194 | 0.00447 | 14.1062 | 84.7214 | 110.1773 | 12.54107 | – |
| 2026 Apr 09 18:01 | 2026 Apr 08 13:49:17 | 74.0194 | 0.00447 | 14.1062 | 84.7214 | 110.1773 | 12.54107 | – |
| 2026 Apr 08 17:57 | 2026 Apr 08 13:49:17 | 74.0194 | 0.00447 | 14.1062 | 84.7214 | 110.1773 | 12.54107 | – |